createdAt,value
2023-05-13T00:02:01.288Z,95360.59
2023-05-13T00:04:29.193Z,95351.50
2023-05-13T00:06:57.053Z,95394.28
2023-05-13T00:09:24.502Z,95302.28
2023-05-13T00:11:51.491Z,95279.78
2023-05-13T00:14:23.253Z,95301.16
2023-05-13T00:16:51.086Z,95393.31
2023-05-13T00:19:18.386Z,95364.50
2023-05-13T00:21:51.557Z,95423.75
2023-05-13T00:24:25.283Z,95425.38
2023-05-13T00:26:56.003Z,95420.41
2023-05-13T00:29:23.389Z,95338.50
2023-05-13T00:31:51.794Z,95325.66
2023-05-13T00:34:19.439Z,95425.16
2023-05-13T00:36:46.184Z,95401.03
2023-05-13T00:39:13.766Z,95407.91
2023-05-13T00:41:40.549Z,95409.31
2023-05-13T00:44:07.333Z,95413.66
2023-05-13T00:46:34.211Z,95384.44
2023-05-13T00:49:01.451Z,95384.88
2023-05-13T00:51:28.236Z,95391.84
2023-05-13T00:53:56.718Z,95397.38
2023-05-13T00:56:28.082Z,95398.91
2023-05-13T00:58:55.106Z,95391.59
2023-05-13T01:01:43.905Z,95396.94
2023-05-13T01:04:16.778Z,95406.28
2023-05-13T01:06:49.329Z,95413.13
2023-05-13T01:09:27.791Z,95407.13
2023-05-13T01:11:56.110Z,95358.25
2023-05-13T01:14:29.465Z,95414.97
2023-05-13T01:17:01.731Z,95374.53
2023-05-13T01:19:52.301Z,95411.50
2023-05-13T01:22:19.313Z,95427.34
2023-05-13T01:24:46.509Z,95379.13
2023-05-13T01:27:14.010Z,95409.09
2023-05-13T01:29:41.249Z,95429.63
2023-05-13T01:32:09.493Z,95359.69
2023-05-13T01:34:37.156Z,95427.88
2023-05-13T01:37:06.090Z,95411.25
2023-05-13T01:39:42.452Z,95310.03
2023-05-13T01:42:29.688Z,95358.38
2023-05-13T01:45:10.494Z,95437.16
2023-05-13T01:50:34.443Z,95358.81
2023-05-13T01:53:02.208Z,95330.34
2023-05-13T01:55:29.067Z,95422.78
2023-05-13T01:57:55.762Z,95413.97
2023-05-13T02:00:22.897Z,95414.22
2023-05-13T02:02:50.010Z,95439.88
2023-05-13T02:05:17.132Z,95436.59
2023-05-13T02:07:44.427Z,95414.84
2023-05-13T02:10:11.884Z,95367.78
2023-05-13T02:12:38.955Z,95377.69
2023-05-13T02:15:06.251Z,95385.31
2023-05-13T02:17:33.290Z,95412.13
2023-05-13T02:20:00.191Z,95363.75
2023-05-13T02:22:27.238Z,95432.66
2023-05-13T02:24:54.141Z,95393.22
2023-05-13T02:27:21.384Z,95373.41
2023-05-13T02:29:48.229Z,95406.13
2023-05-13T02:32:17.972Z,95417.69
2023-05-13T02:34:44.900Z,95399.19
2023-05-13T02:37:17.307Z,95415.94
2023-05-13T02:39:44.580Z,95445.50
2023-05-13T02:42:11.444Z,95453.53
2023-05-13T02:44:38.179Z,95410.91
2023-05-13T02:47:05.612Z,95403.06
2023-05-13T02:49:33.102Z,95458.94
2023-05-13T02:52:00.261Z,95384.06
2023-05-13T02:54:27.556Z,95442.97
2023-05-13T02:56:55.976Z,95370.66
2023-05-13T02:59:22.863Z,95432.41
2023-05-13T03:01:49.920Z,95435.56
2023-05-13T03:04:16.754Z,95471.91
2023-05-13T03:06:53.165Z,95386.03
2023-05-13T03:09:19.940Z,95427.13
2023-05-13T03:11:47.069Z,95412.38
2023-05-13T03:14:13.892Z,95423.78
2023-05-13T03:16:40.892Z,95470.19
2023-05-13T03:19:07.794Z,95460.63
2023-05-13T03:21:35.008Z,95476.03
2023-05-13T03:24:01.726Z,95477.03
2023-05-13T03:26:28.393Z,95474.75
2023-05-13T03:28:55.142Z,95439.56
2023-05-13T03:31:22.032Z,95482.25
2023-05-13T03:33:48.965Z,95431.72
2023-05-13T03:36:15.844Z,95448.22
2023-05-13T03:38:42.656Z,95485.84
2023-05-13T03:41:09.449Z,95490.97
2023-05-13T03:43:36.262Z,95488.88
2023-05-13T03:46:03.791Z,95439.88
2023-05-13T03:48:30.586Z,95499.56
2023-05-13T03:50:57.507Z,95497.38
2023-05-13T03:53:24.300Z,95483.13
2023-05-13T03:55:51.467Z,95505.63
2023-05-13T03:58:19.122Z,95437.47
2023-05-13T04:00:46.943Z,95504.22
2023-05-13T04:03:16.354Z,95461.28
2023-05-13T04:05:46.327Z,95480.28
2023-05-13T04:08:13.461Z,95455.72
2023-05-13T04:10:40.403Z,95488.13
2023-05-13T04:13:07.666Z,95487.00
2023-05-13T04:15:34.582Z,95513.53
2023-05-13T04:18:01.321Z,95538.22
2023-05-13T04:20:29.192Z,95533.72
2023-05-13T04:22:56.248Z,95494.34
2023-05-13T04:25:23.119Z,95533.91
2023-05-13T04:27:49.818Z,95553.88
2023-05-13T04:30:16.794Z,95544.09
2023-05-13T04:32:44.230Z,95554.31
2023-05-13T04:35:10.934Z,95552.75
2023-05-13T04:37:37.939Z,95524.81
2023-05-13T04:40:05.374Z,95529.31
2023-05-13T04:42:31.989Z,95545.91
2023-05-13T04:44:59.014Z,95548.78
2023-05-13T04:47:25.984Z,95527.81
2023-05-13T04:49:53.064Z,95497.88
2023-05-13T04:52:20.994Z,95550.28
2023-05-13T04:54:47.809Z,95535.53
2023-05-13T04:57:15.170Z,95492.09
2023-05-13T04:59:42.112Z,95491.44
2023-05-13T05:02:08.862Z,95518.59
2023-05-13T05:04:36.014Z,95496.25
2023-05-13T05:07:02.935Z,95516.88
2023-05-13T05:09:30.347Z,95522.38
2023-05-13T05:11:57.223Z,95522.03
2023-05-13T05:14:24.041Z,95513.66
2023-05-13T05:16:50.756Z,95541.59
2023-05-13T05:19:17.656Z,95530.81
2023-05-13T05:21:44.709Z,95538.09
2023-05-13T05:24:11.541Z,95544.50
2023-05-13T05:26:38.286Z,95498.22
2023-05-13T05:29:04.987Z,95542.84
2023-05-13T05:31:32.011Z,95558.47
2023-05-13T05:33:59.243Z,95559.06
2023-05-13T05:36:26.169Z,95520.22
2023-05-13T05:38:53.066Z,95542.56
2023-05-13T05:41:20.016Z,95528.44
2023-05-13T05:43:47.075Z,95560.91
2023-05-13T05:46:14.115Z,95527.06
2023-05-13T05:48:40.930Z,95561.72
2023-05-13T05:51:07.745Z,95558.22
2023-05-13T05:53:35.760Z,95534.19
2023-05-13T05:56:02.404Z,95562.00
2023-05-13T05:58:29.213Z,95491.09
2023-05-13T06:00:57.132Z,95580.22
2023-05-13T06:03:24.309Z,95548.50
2023-05-13T06:05:51.151Z,95489.72
2023-05-13T06:08:17.824Z,95573.09
2023-05-13T06:10:45.347Z,95567.63
2023-05-13T06:13:12.203Z,95548.00
2023-05-13T06:15:39.100Z,95558.50
2023-05-13T06:18:06.158Z,95567.00
2023-05-13T06:20:33.259Z,95577.03
2023-05-13T06:23:00.646Z,95580.84
2023-05-13T06:25:27.609Z,95570.78
2023-05-13T06:27:54.530Z,95579.91
2023-05-13T06:30:21.864Z,95568.81
2023-05-13T06:33:00.071Z,95568.06
2023-05-13T06:35:28.278Z,95530.09
2023-05-13T06:37:55.179Z,95522.97
2023-05-13T06:40:22.055Z,95574.91
2023-05-13T06:42:48.970Z,95535.91
2023-05-13T06:45:15.856Z,95552.44
2023-05-13T06:47:42.779Z,95575.94
2023-05-13T06:50:09.936Z,95511.28
2023-05-13T06:52:36.723Z,95512.81
2023-05-13T06:55:03.673Z,95581.91
2023-05-13T06:57:41.771Z,95515.84
2023-05-13T07:00:09.932Z,95579.31
2023-05-13T07:02:36.659Z,95580.63
2023-05-13T07:05:03.540Z,95538.06
2023-05-13T07:07:30.212Z,95561.91
2023-05-13T07:09:57.066Z,95584.44
2023-05-13T07:12:24.107Z,95580.34
2023-05-13T07:14:51.018Z,95566.69
2023-05-13T07:17:18.144Z,95579.78
2023-05-13T07:19:45.139Z,95603.97
2023-05-13T07:22:11.836Z,95572.03
2023-05-13T07:24:38.998Z,95555.09
2023-05-13T07:27:05.919Z,95602.22
2023-05-13T07:29:34.216Z,95580.16
2023-05-13T07:32:05.445Z,95546.97
2023-05-13T07:34:32.557Z,95590.56
2023-05-13T07:36:59.552Z,95610.72
2023-05-13T07:39:26.767Z,95597.53
2023-05-13T07:41:54.466Z,95600.19
2023-05-13T07:44:21.247Z,95557.31
2023-05-13T07:46:48.833Z,95611.72
2023-05-13T07:49:15.631Z,95606.41
2023-05-13T07:51:42.765Z,95539.50
2023-05-13T07:54:10.376Z,95603.72
2023-05-13T07:56:38.558Z,95606.88
2023-05-13T07:59:05.959Z,95570.38
2023-05-13T08:01:33.365Z,95601.19
2023-05-13T08:04:00.895Z,95580.47
2023-05-13T08:06:27.830Z,95572.28
2023-05-13T08:08:54.951Z,95599.91
2023-05-13T08:11:22.859Z,95585.63
2023-05-13T08:13:50.090Z,95554.03
2023-05-13T08:16:17.198Z,95564.00
2023-05-13T08:18:44.149Z,95571.09
2023-05-13T08:21:11.544Z,95552.56
2023-05-13T08:23:45.500Z,95587.94
2023-05-13T08:26:13.705Z,95592.59
2023-05-13T08:28:42.296Z,95571.75
2023-05-13T08:31:12.626Z,95557.97
2023-05-13T08:33:46.082Z,95558.53
2023-05-13T08:36:12.943Z,95546.13
2023-05-13T08:38:39.641Z,95570.91
2023-05-13T08:41:06.618Z,95546.06
2023-05-13T08:43:34.342Z,95562.47
2023-05-13T08:46:05.117Z,95572.22
2023-05-13T08:48:32.503Z,95551.63
2023-05-13T08:50:59.317Z,95558.81
2023-05-13T08:53:26.786Z,95566.63
2023-05-13T08:55:54.207Z,95551.56
2023-05-13T08:58:21.148Z,95551.34
2023-05-13T09:00:49.886Z,95537.34
2023-05-13T09:03:16.685Z,95530.09
2023-05-13T09:05:44.086Z,95534.78
2023-05-13T09:08:11.170Z,95532.75
2023-05-13T09:10:38.893Z,95519.03
2023-05-13T09:13:06.298Z,95515.56
2023-05-13T09:15:33.575Z,95527.41
2023-05-13T09:18:04.426Z,95535.03
2023-05-13T09:20:31.697Z,95537.34
2023-05-13T09:22:59.392Z,95540.25
2023-05-13T09:25:27.546Z,95520.88
2023-05-13T09:27:59.510Z,95546.69
2023-05-13T09:30:26.910Z,95537.97
2023-05-13T09:33:10.483Z,95540.53
2023-05-13T09:35:45.703Z,95533.50
2023-05-13T09:38:25.662Z,95530.00
2023-05-13T09:41:00.911Z,95510.31
2023-05-13T09:43:32.382Z,95512.50
2023-05-13T09:46:04.941Z,95520.22
2023-05-13T09:48:41.445Z,95513.09
2023-05-13T09:51:09.075Z,95470.63
2023-05-13T09:53:35.877Z,95509.81
2023-05-13T09:56:02.724Z,95483.34
2023-05-13T09:58:33.273Z,95514.50
2023-05-13T10:01:13.990Z,95449.75
2023-05-13T10:03:40.751Z,95518.16
2023-05-13T10:06:08.278Z,95513.63
2023-05-13T10:08:36.764Z,95504.38
2023-05-13T10:11:08.688Z,95513.69
2023-05-13T10:13:36.294Z,95512.75
2023-05-13T10:16:05.554Z,95434.34
2023-05-13T10:18:35.429Z,95484.63
2023-05-13T10:21:09.125Z,95519.78
2023-05-13T10:23:57.254Z,95513.25
2023-05-13T10:26:24.692Z,95483.88
2023-05-13T10:28:58.848Z,95475.84
2023-05-13T10:31:40.322Z,95461.03
2023-05-13T10:34:07.571Z,95510.00
2023-05-13T10:36:40.645Z,95507.72
2023-05-13T10:39:10.275Z,95495.41
2023-05-13T10:42:06.196Z,95497.91
2023-05-13T10:44:36.338Z,95398.47
2023-05-13T10:47:23.888Z,95495.41
2023-05-13T10:49:53.953Z,95507.97
2023-05-13T10:52:21.047Z,95485.13
2023-05-13T10:55:14.667Z,95455.97
2023-05-13T10:57:41.682Z,95500.13
2023-05-13T11:00:19.889Z,95487.03
2023-05-13T11:02:46.987Z,95507.22
2023-05-13T11:05:23.187Z,95511.00
2023-05-13T11:07:57.250Z,95476.94
2023-05-13T11:10:30.172Z,95502.75
2023-05-13T11:13:20.548Z,95491.34
2023-05-13T11:15:54.644Z,95482.38
2023-05-13T11:18:38.285Z,95483.38
2023-05-13T11:21:11.571Z,95476.16
2023-05-13T11:24:00.353Z,95437.34
2023-05-13T11:26:27.274Z,95388.63
2023-05-13T11:29:06.390Z,95472.72
2023-05-13T11:31:59.257Z,95457.63
2023-05-13T11:34:27.320Z,95447.78
2023-05-13T11:36:58.307Z,95460.53
2023-05-13T11:39:28.804Z,95426.28
2023-05-13T11:42:01.682Z,95451.38
2023-05-13T11:44:29.024Z,95458.81
2023-05-13T11:47:01.537Z,95451.97
2023-05-13T11:49:38.753Z,95445.25
2023-05-13T11:52:13.174Z,95447.44
2023-05-13T11:54:44.035Z,95436.72
2023-05-13T11:57:38.367Z,95447.78
2023-05-13T12:00:10.403Z,95423.00
2023-05-13T12:02:44.562Z,95429.50
2023-05-13T12:05:12.055Z,95340.53
2023-05-13T12:07:39.700Z,95441.19
2023-05-13T12:10:07.991Z,95429.84
2023-05-13T12:12:38.052Z,95435.59
2023-05-13T12:15:10.764Z,95435.50
2023-05-13T12:17:37.640Z,95431.53
2023-05-13T12:20:18.878Z,95429.97
2023-05-13T12:22:45.378Z,95441.44
2023-05-13T12:25:35.109Z,95434.13
2023-05-13T12:28:17.909Z,95428.78
2023-05-13T12:30:53.720Z,95418.28
2023-05-13T12:33:24.090Z,95417.66
2023-05-13T12:36:20.119Z,95426.88
2023-05-13T12:38:59.595Z,95422.59
2023-05-13T12:41:35.483Z,95416.25
2023-05-13T12:44:04.386Z,95416.22
2023-05-13T12:46:31.496Z,95412.75
2023-05-13T12:49:00.181Z,95407.94
2023-05-13T12:51:27.465Z,95397.06
2023-05-13T12:53:54.624Z,95408.47
2023-05-13T12:56:28.669Z,95407.63
2023-05-13T12:58:55.777Z,95423.50
2023-05-13T13:01:22.965Z,95388.22
2023-05-13T13:03:50.037Z,95395.91
2023-05-13T13:06:17.400Z,95394.88
2023-05-13T13:08:44.158Z,95406.56
2023-05-13T13:11:15.080Z,95406.28
2023-05-13T13:13:41.805Z,95383.75
2023-05-13T13:16:09.380Z,95390.94
2023-05-13T13:18:36.276Z,95395.28
2023-05-13T13:21:03.277Z,95392.66
2023-05-13T13:23:29.884Z,95393.72
2023-05-13T13:25:58.447Z,95384.84
2023-05-13T13:28:28.778Z,95380.81
2023-05-13T13:30:55.456Z,95369.63
2023-05-13T13:33:22.509Z,95385.22
2023-05-13T13:35:50.052Z,95378.28
2023-05-13T13:38:16.651Z,95383.13
2023-05-13T13:40:43.238Z,95385.13
2023-05-13T13:43:09.871Z,95380.94
2023-05-13T13:45:36.734Z,95363.63
2023-05-13T13:48:03.454Z,95378.03
2023-05-13T13:50:30.285Z,95364.22
2023-05-13T13:53:00.411Z,95393.16
2023-05-13T13:55:27.024Z,95366.84
2023-05-13T13:57:53.778Z,95380.88
2023-05-13T14:00:20.882Z,95378.59
2023-05-13T14:02:48.383Z,95372.16
2023-05-13T14:05:16.233Z,95367.31
2023-05-13T14:07:42.944Z,95373.13
2023-05-13T14:10:10.143Z,95378.97
2023-05-13T14:12:37.904Z,95365.34
2023-05-13T14:15:05.074Z,95378.31
2023-05-13T14:17:33.760Z,95378.53
2023-05-13T14:20:00.621Z,95343.44
2023-05-13T14:22:27.513Z,95363.03
2023-05-13T14:24:54.418Z,95363.56
2023-05-13T14:27:25.091Z,95374.81
2023-05-13T14:29:52.050Z,95371.28
2023-05-13T14:32:18.695Z,95370.22
2023-05-13T14:34:46.245Z,95357.16
2023-05-13T14:37:14.797Z,95348.97
2023-05-13T14:39:41.373Z,95335.53
2023-05-13T14:42:08.005Z,95348.06
2023-05-13T14:44:36.905Z,95371.41
2023-05-13T14:47:03.806Z,95373.09
2023-05-13T14:49:30.648Z,95342.63
2023-05-13T14:51:57.480Z,95340.66
2023-05-13T14:54:24.162Z,95355.50
2023-05-13T14:56:52.192Z,95357.38
2023-05-13T14:59:19.085Z,95354.16
2023-05-13T15:01:45.992Z,95361.88
2023-05-13T15:04:12.780Z,95344.03
2023-05-13T15:06:39.445Z,95353.81
2023-05-13T15:09:09.731Z,95360.22
2023-05-13T15:11:39.999Z,95364.06
2023-05-13T15:14:07.838Z,95366.72
2023-05-13T15:16:34.558Z,95352.00
2023-05-13T15:19:01.315Z,95363.78
2023-05-13T15:21:28.014Z,95366.78
2023-05-13T15:23:54.612Z,95349.56
2023-05-13T15:26:22.368Z,95339.47
2023-05-13T15:28:48.968Z,95347.72
2023-05-13T15:31:17.812Z,95353.78
2023-05-13T15:33:45.351Z,95361.91
2023-05-13T15:36:12.597Z,95361.72
2023-05-13T15:38:39.257Z,95344.00
2023-05-13T15:41:05.978Z,95357.53
2023-05-13T15:43:32.795Z,95353.06
2023-05-13T15:46:00.406Z,95365.78
2023-05-13T15:48:27.449Z,95364.75
2023-05-13T15:50:54.352Z,95388.53
2023-05-13T15:53:20.992Z,95366.75
2023-05-13T15:55:47.644Z,95358.22
2023-05-13T15:58:14.210Z,95383.19
2023-05-13T16:00:41.512Z,95359.38
2023-05-13T16:03:11.034Z,95377.94
2023-05-13T16:05:38.870Z,95380.69
2023-05-13T16:08:05.628Z,95382.44
2023-05-13T16:10:32.299Z,95371.84
2023-05-13T16:12:58.997Z,95374.59
2023-05-13T16:15:25.792Z,95377.84
2023-05-13T16:17:52.524Z,95370.81
2023-05-13T16:20:19.542Z,95394.41
2023-05-13T16:22:46.428Z,95370.56
2023-05-13T16:25:13.115Z,95377.50
2023-05-13T16:27:43.562Z,95397.84
2023-05-13T16:30:10.620Z,95392.22
2023-05-13T16:32:37.632Z,95405.78
2023-05-13T16:35:05.706Z,95400.44
2023-05-13T16:37:35.248Z,95377.84
2023-05-13T16:40:02.213Z,95371.34
2023-05-13T16:42:28.991Z,95398.66
2023-05-13T16:44:56.052Z,95391.13
2023-05-13T16:47:22.883Z,95387.81
2023-05-13T16:49:50.361Z,95362.50
2023-05-13T16:52:17.158Z,95400.44
2023-05-13T16:54:44.740Z,95402.72
2023-05-13T16:57:11.490Z,95395.38
2023-05-13T16:59:38.365Z,95410.91
2023-05-13T17:02:05.301Z,95403.63
2023-05-13T17:04:31.891Z,95398.06
2023-05-13T17:06:59.410Z,95390.56
2023-05-13T17:09:26.438Z,95403.75
2023-05-13T17:11:55.404Z,95406.53
2023-05-13T17:14:23.362Z,95392.34
2023-05-13T17:16:50.331Z,95384.09
2023-05-13T17:19:17.597Z,95381.59
2023-05-13T17:21:44.399Z,95394.19
2023-05-13T17:24:11.176Z,95401.44
2023-05-13T17:26:38.929Z,95404.97
2023-05-13T17:29:06.053Z,95409.88
2023-05-13T17:31:33.257Z,95416.88
2023-05-13T17:34:00.073Z,95411.34
2023-05-13T17:36:26.828Z,95411.75
2023-05-13T17:38:53.498Z,95425.66
2023-05-13T17:41:20.209Z,95429.16
2023-05-13T17:43:46.823Z,95411.03
2023-05-13T17:46:13.439Z,95412.81
2023-05-13T17:48:40.206Z,95422.00
2023-05-13T17:51:07.340Z,95413.28
2023-05-13T17:53:34.986Z,95421.84
2023-05-13T17:56:01.861Z,95419.28
2023-05-13T17:58:28.460Z,95420.75
2023-05-13T18:00:55.519Z,95428.28
2023-05-13T18:03:22.403Z,95432.25
2023-05-13T18:05:49.250Z,95432.19
2023-05-13T18:08:16.030Z,95405.53
2023-05-13T18:10:42.822Z,95428.63
2023-05-13T18:13:09.446Z,95417.34
2023-05-13T18:15:36.494Z,95416.88
2023-05-13T18:18:03.828Z,95405.72
2023-05-13T18:20:31.998Z,95412.97
2023-05-13T18:22:59.390Z,95384.19
2023-05-13T18:25:26.223Z,95400.00
2023-05-13T18:27:52.900Z,95424.72
2023-05-13T18:30:19.835Z,95403.56
2023-05-13T18:32:46.583Z,95368.00
2023-05-13T18:35:13.408Z,95424.84
2023-05-13T18:37:40.051Z,95378.94
2023-05-13T18:40:07.269Z,95436.25
2023-05-13T18:42:34.026Z,95430.28
2023-05-13T18:45:00.796Z,95431.72
2023-05-13T18:47:27.454Z,95423.41
2023-05-13T18:49:54.284Z,95424.09
2023-05-13T18:52:21.367Z,95427.38
2023-05-13T18:54:48.251Z,95424.84
2023-05-13T18:57:16.083Z,95416.25
2023-05-13T18:59:53.043Z,95415.50
2023-05-13T19:02:19.977Z,95404.75
2023-05-13T19:04:46.701Z,95381.56
2023-05-13T19:07:14.019Z,95396.19
2023-05-13T19:09:40.910Z,95420.88
2023-05-13T19:12:08.679Z,95413.13
2023-05-13T19:14:37.732Z,95441.50
2023-05-13T19:17:04.525Z,95424.31
2023-05-13T19:19:31.322Z,95449.44
2023-05-13T19:21:58.215Z,95455.69
2023-05-13T19:24:25.027Z,95442.19
2023-05-13T19:26:51.685Z,95445.03
2023-05-13T19:29:18.426Z,95462.91
2023-05-13T19:31:45.208Z,95424.41
2023-05-13T19:34:11.969Z,95454.78
2023-05-13T19:36:38.887Z,95451.09
2023-05-13T19:39:08.903Z,95454.03
2023-05-13T19:41:35.580Z,95435.88
2023-05-13T19:44:02.201Z,95455.94
2023-05-13T19:46:28.961Z,95455.19
2023-05-13T19:48:55.650Z,95451.78
2023-05-13T19:51:22.271Z,95461.91
2023-05-13T19:53:49.041Z,95462.75
2023-05-13T19:56:15.808Z,95453.88
2023-05-13T19:58:42.411Z,95447.53
2023-05-13T20:01:09.238Z,95463.13
2023-05-13T20:03:35.945Z,95464.25
2023-05-13T20:06:02.834Z,95456.03
2023-05-13T20:08:31.567Z,95466.53
2023-05-13T20:10:58.217Z,95461.44
2023-05-13T20:13:24.950Z,95469.66
2023-05-13T20:15:52.437Z,95438.94
2023-05-13T20:18:19.288Z,95446.84
2023-05-13T20:20:47.097Z,95443.25
2023-05-13T20:23:14.636Z,95451.69
2023-05-13T20:25:41.540Z,95453.94
2023-05-13T20:28:08.241Z,95449.31
2023-05-13T20:30:34.892Z,95461.31
2023-05-13T20:33:01.515Z,95456.78
2023-05-13T20:35:28.187Z,95443.06
2023-05-13T20:37:57.269Z,95462.25
2023-05-13T20:40:24.352Z,95446.38
2023-05-13T20:42:51.201Z,95442.03
2023-05-13T20:45:17.909Z,95446.75
2023-05-13T20:47:44.548Z,95447.69
2023-05-13T20:50:11.586Z,95432.56
2023-05-13T20:52:38.230Z,95439.38
2023-05-13T20:55:05.470Z,95450.81
2023-05-13T20:57:32.151Z,95439.56
2023-05-13T21:00:00.015Z,95447.78
2023-05-13T21:02:26.718Z,95452.06
2023-05-13T21:04:53.330Z,95452.63
2023-05-13T21:07:20.230Z,95458.28
2023-05-13T21:09:46.890Z,95451.00
2023-05-13T21:12:13.495Z,95467.81
2023-05-13T21:14:40.053Z,95456.00
2023-05-13T21:17:06.778Z,95469.53
2023-05-13T21:19:33.906Z,95473.03
2023-05-13T21:22:04.933Z,95468.19
2023-05-13T21:24:31.671Z,95474.34
2023-05-13T21:26:58.249Z,95471.13
2023-05-13T21:29:24.848Z,95470.38
2023-05-13T21:31:51.492Z,95483.41
2023-05-13T21:34:18.140Z,95476.13
2023-05-13T21:36:44.936Z,95479.91
2023-05-13T21:39:11.609Z,95475.50
2023-05-13T21:41:38.591Z,95481.25
2023-05-13T21:44:05.506Z,95481.44
2023-05-13T21:46:32.141Z,95467.34
2023-05-13T21:49:00.270Z,95462.91
2023-05-13T21:51:27.562Z,95455.91
2023-05-13T21:53:54.582Z,95462.34
2023-05-13T21:56:22.075Z,95460.03
2023-05-13T21:58:49.889Z,95459.34
2023-05-13T22:01:16.843Z,95452.28
2023-05-13T22:03:43.707Z,95453.59
2023-05-13T22:06:10.666Z,95431.47
2023-05-13T22:08:37.401Z,95445.44
2023-05-13T22:11:04.165Z,95444.41
2023-05-13T22:13:31.036Z,95459.75
2023-05-13T22:15:57.936Z,95449.81
2023-05-13T22:18:25.234Z,95390.00
2023-05-13T22:20:52.375Z,95444.97
2023-05-13T22:23:19.283Z,95433.81
2023-05-13T22:25:46.028Z,95407.72
2023-05-13T22:28:18.071Z,95443.06
2023-05-13T22:30:44.933Z,95377.31
2023-05-13T22:33:11.820Z,95432.88
2023-05-13T22:35:39.608Z,95419.09
2023-05-13T22:38:06.310Z,95430.44
2023-05-13T22:40:32.965Z,95436.00
2023-05-13T22:42:59.695Z,95440.16
2023-05-13T22:45:26.505Z,95437.22
2023-05-13T22:47:53.273Z,95431.19
2023-05-13T22:50:20.006Z,95417.09
2023-05-13T22:52:46.777Z,95437.06
2023-05-13T22:55:13.539Z,95447.91
2023-05-13T22:57:40.328Z,95448.78
2023-05-13T23:00:07.834Z,95452.84
2023-05-13T23:02:34.500Z,95436.31
2023-05-13T23:05:01.268Z,95443.59
2023-05-13T23:07:27.895Z,95449.63
2023-05-13T23:09:54.541Z,95449.47
2023-05-13T23:12:22.368Z,95435.94
2023-05-13T23:14:49.104Z,95423.31
2023-05-13T23:17:15.908Z,95432.63
2023-05-13T23:19:42.659Z,95421.31
2023-05-13T23:22:09.396Z,95430.44
2023-05-13T23:24:35.983Z,95417.16
2023-05-13T23:27:02.627Z,95427.25
2023-05-13T23:29:29.301Z,95427.56
2023-05-13T23:31:56.101Z,95427.72
2023-05-13T23:34:22.931Z,95426.50
2023-05-13T23:36:49.863Z,95416.75
2023-05-13T23:39:16.501Z,95415.72
2023-05-13T23:41:43.165Z,95414.22
2023-05-13T23:44:09.867Z,95417.72
2023-05-13T23:46:36.546Z,95409.50
2023-05-13T23:49:03.323Z,95411.75
2023-05-13T23:51:29.966Z,95411.13
2023-05-13T23:53:56.504Z,95406.28
2023-05-13T23:56:23.071Z,95409.50
2023-05-13T23:58:49.724Z,95413.94
